Ekofisk Plat, Norvegia

06:19 PM CET die 16o January, anno 2017 (GMT +0100)
Ekofisk | | Change Station

Elev 151 ft 56.53 °N, 3.22 °E | Updated 29 minutes ago

Plerumque Nubila
Plerumque Nubila
41 °F
Feels Like 34 °F
N
13
Ventus Variabilis Ventus from Magis Auster quam Eurus

Hodie
High -- | Low -- °F
--% Chance of Precip.
Yesterday
High -- | Low -- °F
Precip. -- in
Pressio 30.39 in
Visibilitas 6.2 milia passuum
Clouds Few 3000 ft
Nubes Dispersae 11000 ft
Plerumque Nubila 16000 ft
Frigus Venti 34 °F
Frigus in quo Ros apparet 30 °F
Umor 65%
Rainfall 0.00 in
Snow Depth Not available.
9:09 AM 4:44 PM
Waning Gibbous, 80% visible
METAR ENEK 161650Z 15011KT 9999 FEW030 SCT110 BKN160 05/M01 Q1029 W07/S3
Pressio 30.39 in
Visibilitas 6.2 milia passuum
Clouds Few 3000 ft
Nubes Dispersae 11000 ft
Plerumque Nubila 16000 ft
Frigus Venti 34 °F
Frigus in quo Ros apparet 30 °F
Umor 65%
Rainfall 0.00 in
Snow Depth Not available.
9:09 AM 4:44 PM
Waning Gibbous, 80% visible
METAR ENEK 161650Z 15011KT 9999 FEW030 SCT110 BKN160 05/M01 Q1029 W07/S3

Get Your Daily Forecast Email!

Thanks for signing up!

Be on the lookout for a verification email in your inbox.

You'll start receiving the daily forecast at 8 AM.

×

10-Day Weather Forecast

×

Almanac

Astronomy

Jan. 16, 2017 Rise Set
Actual Time
Civil Twilight
Nautical Twilight
Astronomical Twilight
Moon
Length Of Visible Light
Length of Day
Tomorrow will be .
, % of the Moon is Illuminated

Today's Extremes

Country Highs Country Lows

Community

WunderPhotos

Upload Photos

1,962,540 photos uploaded!

WunderBlog® & News

Nearby

Air Quality

  Air Quality AQ Index Pollutant
Not available.

Snow Depth

Station Depth Elevation

Earthquake Activity

City Distance Mag. Time & Date
Minimum magnitude displayed is 2.5.

Coastal Water Temperatures

Locus Calor

Stations

Nearby Weather Stations

Station Location Temp Frigus Venti Frigus in quo Ros apparet Umor Ventus Precip. Elev Renovata Type